White Rock, Minnesota
Current Conditions -  °F | °C
As of 6:34 PM on Monday 24 Nov 2014 (Local Time) from KSYN Reporting Station
Light Snow Light Snow  
Wind Chill:   Ceiling: 2400
Heat Index: 19°   Visibility: 10mi
Dew Point: 12°   Wind: 14mph
Humidity: 75%   Direction: 300°WNW
Pressure: 29.73"   Gusts: 24mph
Location:  44.4763°N, 92.8054°W
Report Text: KSYN 250034Z AUTO 30012G21KT 10SM -SN OVC024 M07/M11 A2973 RMK AO2 T10731110
Loading
Personal Weather Stations






























Interactive Weather Map New forecast layout! Learn more

10-Day Weather Forecast

Advertisements
Track Severe Weather on mobile